SBCT/CWB METAR and TAF weather

Enter ICAO airport designator
Station Type Date Time Source
SBCT METAR 2019/04/18 10:00 UTC NOAA

SBCT 181000Z 11002KT 0200 R33/0150 R15/0175 FG VV001 12/12 Q101 7


Station Type Date Time Source
SBCT Decoded METAR 2019/04/18 10:00 UTC NOAA

Curitiba Aeroporto , Brazil (SBCT) 25-31S 049-10W 908M
Apr 18, 2019 - 06:00 AM EDT / 2019.04.18 1000 UTC
Wind: from the ESE (110 degrees) at 2 MPH (2 KT):0
Visibility: less than 1 mile:0
Sky conditions: obscured
Weather: fog
Temperature: 53 F (12 C)
Dew Point: 53 F (12 C)
Relative Humidity: 100%
ob: SBCT 181000Z 11002KT 0200 R33/0150 R15/0175 FG VV001 12/12 Q101 7
cycle: 10

Station Type Date Time Source
SBCT TAF 2019/04/18 12:45 UTC NOAA

TAF SBCT 180900Z 1812/1912 22005KT CAVOK TX26/1818Z TN12/1908Z
BECMG 1818/1820 12005KT PROB40
TEMPO 1906/1911 0600 FG BKN002
RMK PDW

Example: see airport list